createdAt,value
2019-03-01T00:00:03.858Z,9.10
2019-03-01T00:01:02.847Z,9.00
2019-03-01T00:02:02.829Z,8.50
2019-03-01T00:03:02.805Z,9.00
2019-03-01T00:04:02.805Z,8.90
2019-03-01T00:05:03.367Z,8.50
2019-03-01T00:06:02.750Z,8.90
2019-03-01T00:07:02.727Z,8.60
2019-03-01T00:08:02.713Z,8.70
2019-03-01T00:09:02.695Z,9.00
2019-03-01T00:10:02.685Z,8.40
2019-03-01T00:11:02.667Z,8.30
2019-03-01T00:12:02.627Z,9.00
2019-03-01T00:13:02.615Z,8.70
2019-03-01T00:14:02.588Z,8.60
2019-03-01T00:15:02.572Z,8.70
2019-03-01T00:16:02.563Z,8.50
2019-03-01T00:17:02.550Z,8.90
2019-03-01T00:18:02.517Z,8.70
2019-03-01T00:19:02.493Z,8.80
2019-03-01T00:20:02.474Z,8.60
2019-03-01T00:21:02.459Z,8.90
2019-03-01T00:22:02.438Z,8.60
2019-03-01T00:23:02.438Z,8.50
2019-03-01T00:24:02.394Z,8.80
2019-03-01T00:25:02.377Z,8.80
2019-03-01T00:26:02.363Z,8.30
2019-03-01T00:27:02.331Z,8.70
2019-03-01T00:28:02.315Z,8.80
2019-03-01T00:29:02.313Z,9.50
2019-03-01T00:30:02.281Z,8.80
2019-03-01T00:31:02.257Z,8.70
2019-03-01T00:32:02.239Z,9.10
2019-03-01T00:33:02.247Z,8.70
2019-03-01T00:34:02.206Z,8.80
2019-03-01T00:35:02.184Z,9.00
2019-03-01T00:36:02.160Z,8.70
2019-03-01T00:37:02.140Z,9.20
2019-03-01T00:38:02.119Z,8.90
2019-03-01T00:39:02.120Z,8.80
2019-03-01T00:40:02.090Z,8.90
2019-03-01T00:41:02.072Z,9.30
2019-03-01T00:42:02.061Z,9.00
2019-03-01T00:43:02.028Z,8.70
2019-03-01T00:44:02.006Z,9.20
2019-03-01T00:45:02.009Z,8.80
2019-03-01T00:46:01.994Z,9.30
2019-03-01T00:47:01.945Z,9.10
2019-03-01T00:48:01.923Z,9.20
2019-03-01T00:49:01.905Z,10.00
2019-03-01T00:50:01.904Z,9.30
2019-03-01T00:51:01.866Z,9.30
2019-03-01T00:52:01.862Z,10.10
2019-03-01T00:53:01.830Z,9.60
2019-03-01T00:54:01.808Z,9.80
2019-03-01T00:55:01.786Z,10.10
2019-03-01T00:56:01.769Z,9.80
2019-03-01T00:57:01.766Z,9.70
2019-03-01T00:58:01.746Z,9.90
2019-03-01T00:59:01.708Z,9.60
2019-03-01T01:00:01.685Z,9.60
2019-03-01T01:01:01.670Z,9.70
2019-03-01T01:02:01.651Z,9.80
2019-03-01T01:03:01.652Z,9.70
2019-03-01T01:04:01.611Z,9.60
2019-03-01T01:05:01.589Z,10.00
2019-03-01T01:06:01.576Z,9.40
2019-03-01T01:07:01.556Z,9.90
2019-03-01T01:08:01.549Z,9.70
2019-03-01T01:09:02.346Z,10.00
2019-03-01T01:10:01.583Z,9.30
2019-03-01T01:11:01.471Z,9.90
2019-03-01T01:12:02.396Z,10.10
2019-03-01T01:13:01.446Z,10.00
2019-03-01T01:14:01.431Z,10.00
2019-03-01T01:15:01.395Z,9.80
2019-03-01T01:16:01.372Z,9.60
2019-03-01T01:17:01.355Z,10.00
2019-03-01T01:18:01.338Z,10.30
2019-03-01T01:19:01.338Z,10.80
2019-03-01T01:20:01.310Z,11.00
2019-03-01T01:21:01.279Z,11.30
2019-03-01T01:22:01.259Z,11.50
2019-03-01T01:23:01.239Z,11.50
2019-03-01T01:24:01.221Z,11.90
2019-03-01T01:25:01.218Z,11.10
2019-03-01T01:26:01.177Z,12.30
2019-03-01T01:27:01.157Z,11.80
2019-03-01T01:28:01.144Z,12.00
2019-03-01T01:29:01.153Z,11.60
2019-03-01T01:30:01.106Z,11.70
2019-03-01T01:31:01.094Z,11.40
2019-03-01T01:32:01.062Z,11.60
2019-03-01T01:33:01.039Z,11.00
2019-03-01T01:34:01.019Z,11.60
2019-03-01T01:35:01.022Z,10.80
2019-03-01T01:36:00.983Z,10.40
2019-03-01T01:37:00.961Z,10.70
2019-03-01T01:38:00.945Z,10.20
2019-03-01T01:39:00.923Z,10.10
2019-03-01T01:40:00.929Z,9.80
2019-03-01T01:41:00.903Z,9.40
2019-03-01T01:42:00.868Z,9.90
2019-03-01T01:43:00.864Z,9.60
2019-03-01T01:44:00.824Z,9.50
2019-03-01T01:45:00.808Z,8.90
2019-03-01T01:46:00.802Z,9.50
2019-03-01T01:47:00.789Z,8.80
2019-03-01T01:48:00.743Z,9.40
2019-03-01T01:49:00.726Z,8.90
2019-03-01T01:50:00.709Z,9.70
2019-03-01T01:51:00.687Z,9.10
2019-03-01T01:52:00.693Z,8.80
2019-03-01T01:53:00.651Z,9.10
2019-03-01T01:54:00.629Z,8.70
2019-03-01T01:55:00.625Z,9.30
2019-03-01T01:56:00.588Z,8.90
2019-03-01T01:57:00.567Z,9.30
2019-03-01T01:58:00.549Z,9.40
2019-03-01T01:59:00.530Z,9.30
2019-03-01T02:00:00.530Z,9.10
2019-03-01T02:01:00.509Z,9.40
2019-03-01T02:02:01.394Z,9.30
2019-03-01T02:03:01.353Z,9.60
2019-03-01T02:04:00.436Z,9.40
2019-03-01T02:05:00.411Z,9.40
2019-03-01T02:06:00.411Z,9.70
2019-03-01T02:07:00.929Z,10.20
2019-03-01T02:08:00.348Z,10.00
2019-03-01T02:09:00.334Z,10.80
2019-03-01T02:10:00.361Z,10.50
2019-03-01T02:11:00.295Z,10.50
2019-03-01T02:12:00.292Z,10.70
2019-03-01T02:13:00.250Z,10.50
2019-03-01T02:14:00.235Z,10.60
2019-03-01T02:15:00.325Z,10.20
2019-03-01T02:16:00.199Z,11.00
2019-03-01T02:17:00.189Z,10.70
2019-03-01T02:18:00.151Z,11.10
2019-03-01T02:19:00.140Z,10.40
2019-03-01T02:20:00.287Z,11.40
2019-03-01T02:21:00.092Z,11.10
2019-03-01T02:22:00.097Z,11.10
2019-03-01T02:23:00.057Z,11.10
2019-03-01T02:24:00.035Z,11.30
2019-03-01T02:25:00.017Z,11.50
2019-03-01T02:25:59.996Z,12.00
2019-03-01T02:26:59.977Z,11.70
2019-03-01T02:27:59.973Z,11.40
2019-03-01T02:28:59.960Z,11.60
2019-03-01T02:29:59.919Z,11.70
2019-03-01T02:30:59.899Z,11.60
2019-03-01T02:31:59.882Z,11.70
2019-03-01T02:32:59.857Z,11.90
2019-03-01T02:33:59.864Z,12.10
2019-03-01T02:34:59.824Z,12.20
2019-03-01T02:35:59.824Z,12.20
2019-03-01T02:36:59.784Z,12.30
2019-03-01T02:38:00.862Z,12.70
2019-03-01T02:38:59.744Z,12.90
2019-03-01T02:39:59.726Z,13.50
2019-03-01T02:40:59.722Z,13.10
2019-03-01T02:41:59.691Z,13.60
2019-03-01T02:42:59.680Z,13.10
2019-03-01T02:43:59.645Z,13.20
2019-03-01T02:44:59.626Z,13.60
2019-03-01T02:45:59.604Z,14.00
2019-03-01T02:46:59.582Z,14.50
2019-03-01T02:47:59.580Z,14.30
2019-03-01T02:48:59.551Z,14.30
2019-03-01T02:49:59.526Z,14.50
2019-03-01T02:50:59.511Z,14.50
2019-03-01T02:51:59.487Z,14.80
2019-03-01T02:52:59.482Z,14.40
2019-03-01T02:54:00.362Z,14.90
2019-03-01T02:54:59.430Z,15.20
2019-03-01T02:55:59.420Z,14.40
2019-03-01T02:56:59.403Z,14.60
2019-03-01T02:57:59.373Z,14.80
2019-03-01T02:58:59.346Z,15.40
2019-03-01T02:59:59.346Z,15.10
2019-03-01T03:00:59.316Z,15.50
2019-03-01T03:01:59.305Z,15.20
2019-03-01T03:02:59.264Z,15.90
2019-03-01T03:03:59.250Z,16.10
2019-03-01T03:04:59.227Z,15.80
2019-03-01T03:05:59.230Z,16.20
2019-03-01T03:06:59.186Z,16.10
2019-03-01T03:07:59.171Z,16.30
2019-03-01T03:08:59.150Z,16.20
2019-03-01T03:09:59.134Z,16.10
2019-03-01T03:10:59.134Z,15.20
2019-03-01T03:11:59.090Z,16.20
2019-03-01T03:12:59.079Z,16.10
2019-03-01T03:13:59.864Z,14.80
2019-03-01T03:14:59.034Z,15.70
2019-03-01T03:15:59.014Z,16.80
2019-03-01T03:16:59.951Z,15.90
2019-03-01T03:17:58.974Z,15.70
2019-03-01T03:18:59.908Z,16.50
2019-03-01T03:19:58.938Z,17.00
2019-03-01T03:20:58.918Z,16.80
2019-03-01T03:21:59.404Z,16.70
2019-03-01T03:22:58.887Z,16.70
2019-03-01T03:23:59.384Z,17.30
2019-03-01T03:24:58.833Z,16.90
2019-03-01T03:25:58.813Z,16.60
2019-03-01T03:26:58.828Z,16.60
2019-03-01T03:27:58.793Z,16.80
2019-03-01T03:28:59.407Z,16.70
2019-03-01T03:29:58.775Z,16.80
2019-03-01T03:30:58.719Z,17.10
2019-03-01T03:31:58.781Z,17.20
2019-03-01T03:32:58.689Z,17.00
2019-03-01T03:33:58.685Z,16.90
2019-03-01T03:34:58.658Z,17.50
2019-03-01T03:35:58.616Z,17.20
2019-03-01T03:36:58.602Z,17.00
2019-03-01T03:37:58.585Z,17.20
2019-03-01T03:38:58.587Z,17.90
2019-03-01T03:39:58.543Z,17.40
2019-03-01T03:40:58.525Z,17.50
2019-03-01T03:41:59.376Z,17.40
2019-03-01T03:42:58.481Z,17.70
2019-03-01T03:43:58.465Z,18.00
2019-03-01T03:44:58.458Z,17.40
2019-03-01T03:45:58.440Z,17.00
2019-03-01T03:46:58.415Z,17.70
2019-03-01T03:47:58.396Z,17.20
2019-03-01T03:48:58.386Z,16.90
2019-03-01T03:49:58.357Z,17.20
2019-03-01T03:50:58.328Z,17.30
2019-03-01T03:51:58.324Z,17.30
2019-03-01T03:52:58.327Z,17.70
2019-03-01T03:53:58.272Z,17.70
2019-03-01T03:54:58.942Z,17.40
2019-03-01T03:55:58.238Z,17.00
2019-03-01T03:56:58.231Z,18.50
2019-03-01T03:57:58.191Z,17.80
2019-03-01T03:58:58.170Z,18.10
2019-03-01T03:59:58.147Z,18.00
2019-03-01T04:00:58.142Z,17.50
2019-03-01T04:01:58.219Z,17.50
2019-03-01T04:02:58.106Z,17.60
2019-03-01T04:03:58.082Z,17.80
2019-03-01T04:04:58.056Z,17.00
2019-03-01T04:05:58.037Z,17.70
2019-03-01T04:06:58.013Z,17.70
2019-03-01T04:07:58.009Z,17.30
2019-03-01T04:08:58.010Z,16.80
2019-03-01T04:09:57.958Z,16.90
2019-03-01T04:10:57.936Z,17.60
2019-03-01T04:11:57.937Z,17.60
2019-03-01T04:12:57.900Z,16.60
2019-03-01T04:13:57.906Z,17.80
2019-03-01T04:14:57.856Z,16.40
2019-03-01T04:15:58.445Z,17.10
2019-03-01T04:16:57.816Z,17.30
2019-03-01T04:17:57.818Z,16.80
2019-03-01T04:18:57.782Z,17.10
2019-03-01T04:19:57.761Z,17.40
2019-03-01T04:20:57.750Z,17.60
2019-03-01T04:21:57.737Z,18.20
2019-03-01T04:22:57.701Z,18.00
2019-03-01T04:23:57.691Z,16.80
2019-03-01T04:24:57.684Z,17.00
2019-03-01T04:25:57.645Z,17.40
2019-03-01T04:26:57.628Z,17.00
2019-03-01T04:27:57.606Z,16.80
2019-03-01T04:28:57.585Z,17.10
2019-03-01T04:29:57.612Z,16.30
2019-03-01T04:30:57.553Z,16.60
2019-03-01T04:31:57.527Z,16.90
2019-03-01T04:32:57.518Z,16.70
2019-03-01T04:33:57.494Z,15.80
2019-03-01T04:34:57.472Z,15.80
2019-03-01T04:35:57.466Z,15.30
2019-03-01T04:36:57.430Z,15.90
2019-03-01T04:37:57.420Z,15.50
2019-03-01T04:38:57.388Z,15.80
2019-03-01T04:39:57.373Z,15.70
2019-03-01T04:40:57.432Z,15.80
2019-03-01T04:41:58.379Z,16.60
2019-03-01T04:42:57.317Z,15.70
2019-03-01T04:43:57.301Z,15.50
2019-03-01T04:44:57.272Z,15.50
2019-03-01T04:45:57.261Z,16.10
2019-03-01T04:46:57.262Z,16.00
2019-03-01T04:47:57.233Z,15.60
2019-03-01T04:48:57.202Z,15.80
2019-03-01T04:49:57.175Z,15.70
2019-03-01T04:50:57.158Z,15.40
2019-03-01T04:51:57.897Z,15.10
2019-03-01T04:52:57.127Z,14.90
2019-03-01T04:53:57.109Z,15.80
2019-03-01T04:54:57.079Z,15.70
2019-03-01T04:55:57.063Z,16.10
2019-03-01T04:56:57.044Z,16.20
2019-03-01T04:57:57.038Z,15.70
2019-03-01T04:58:57.001Z,15.50
2019-03-01T04:59:56.982Z,16.60
2019-03-01T05:00:56.968Z,17.50
2019-03-01T05:01:56.945Z,17.80
2019-03-01T05:02:56.944Z,17.70
2019-03-01T05:03:56.906Z,17.80
2019-03-01T05:04:56.892Z,17.90
2019-03-01T05:05:56.884Z,18.20
2019-03-01T05:06:56.849Z,17.80
2019-03-01T05:07:56.899Z,18.10
2019-03-01T05:08:56.807Z,18.20
2019-03-01T05:09:56.790Z,18.60
2019-03-01T05:10:56.802Z,18.70
2019-03-01T05:11:57.424Z,18.30
2019-03-01T05:12:56.728Z,18.90
2019-03-01T05:13:56.719Z,18.80
2019-03-01T05:14:57.385Z,18.20
2019-03-01T05:15:56.711Z,19.00
2019-03-01T05:16:56.656Z,18.90
2019-03-01T05:17:56.649Z,18.30
2019-03-01T05:18:56.629Z,18.80
2019-03-01T05:19:56.594Z,18.80
2019-03-01T05:20:56.592Z,17.70
2019-03-01T05:21:56.555Z,17.80
2019-03-01T05:22:56.533Z,18.20
2019-03-01T05:23:56.519Z,18.00
2019-03-01T05:24:56.494Z,18.20
2019-03-01T05:25:56.497Z,18.50
2019-03-01T05:26:56.457Z,18.80
2019-03-01T05:27:56.438Z,18.70
2019-03-01T05:28:56.423Z,19.40
2019-03-01T05:29:56.403Z,18.70
2019-03-01T05:30:56.382Z,19.20
2019-03-01T05:31:56.378Z,19.10
2019-03-01T05:32:56.887Z,19.30
2019-03-01T05:33:56.319Z,19.00
2019-03-01T05:34:56.303Z,19.20
2019-03-01T05:35:56.292Z,19.80
2019-03-01T05:36:56.276Z,20.40
2019-03-01T05:37:56.263Z,21.10
2019-03-01T05:38:56.232Z,21.30
2019-03-01T05:39:56.204Z,22.10
2019-03-01T05:40:56.187Z,23.00
2019-03-01T05:41:56.195Z,23.40
2019-03-01T05:42:56.166Z,23.50
2019-03-01T05:43:56.126Z,23.80
2019-03-01T05:44:56.110Z,23.80
2019-03-01T05:45:56.092Z,25.00
2019-03-01T05:46:56.073Z,26.00
2019-03-01T05:47:56.057Z,26.50
2019-03-01T05:48:56.048Z,26.40
2019-03-01T05:49:56.012Z,25.80
2019-03-01T05:50:55.993Z,25.90
2019-03-01T05:51:55.974Z,27.80
2019-03-01T05:52:55.956Z,29.20
2019-03-01T05:53:55.948Z,28.20
2019-03-01T05:54:55.914Z,29.30
2019-03-01T05:55:55.899Z,29.60
2019-03-01T05:56:55.881Z,30.70
2019-03-01T05:57:55.864Z,31.40
2019-03-01T05:58:56.892Z,32.10
2019-03-01T05:59:55.821Z,32.10
2019-03-01T06:00:55.795Z,32.90
2019-03-01T06:01:55.782Z,32.90
2019-03-01T06:02:55.767Z,33.00
2019-03-01T06:03:55.740Z,34.40
2019-03-01T06:04:55.746Z,35.40
2019-03-01T06:05:55.701Z,38.00
2019-03-01T06:06:55.680Z,37.80
2019-03-01T06:07:55.662Z,40.00
2019-03-01T06:08:55.654Z,43.40
2019-03-01T06:09:55.651Z,44.70
2019-03-01T06:10:55.620Z,45.70
2019-03-01T06:11:55.579Z,43.90
2019-03-01T06:12:55.563Z,44.20
2019-03-01T06:13:55.538Z,47.60
2019-03-01T06:14:55.524Z,48.30
2019-03-01T06:15:55.507Z,48.30
2019-03-01T06:16:55.498Z,47.90
2019-03-01T06:17:55.465Z,48.60
2019-03-01T06:18:55.442Z,51.80
2019-03-01T06:19:55.427Z,52.90
2019-03-01T06:20:55.406Z,54.30
2019-03-01T06:21:55.403Z,55.50
2019-03-01T06:22:55.368Z,57.20
2019-03-01T06:23:55.919Z,57.90
2019-03-01T06:24:55.330Z,56.90
2019-03-01T06:25:55.310Z,59.20
2019-03-01T06:26:55.286Z,59.50
2019-03-01T06:27:55.270Z,59.80
2019-03-01T06:28:55.262Z,61.40
2019-03-01T06:29:55.249Z,63.00
2019-03-01T06:30:55.210Z,61.90
2019-03-01T06:31:55.193Z,61.40
2019-03-01T06:32:55.166Z,64.70
2019-03-01T06:33:55.150Z,64.40
2019-03-01T06:34:55.145Z,66.80
2019-03-01T06:35:55.111Z,66.60
2019-03-01T06:36:55.114Z,68.00
2019-03-01T06:37:55.096Z,68.70
2019-03-01T06:38:55.051Z,68.10
2019-03-01T06:39:55.195Z,69.30
2019-03-01T06:40:55.016Z,72.00
2019-03-01T06:41:54.994Z,71.00
2019-03-01T06:42:54.998Z,69.50
2019-03-01T06:43:54.956Z,70.30
2019-03-01T06:44:54.945Z,69.60
2019-03-01T06:45:54.929Z,70.30
2019-03-01T06:46:55.400Z,71.20
2019-03-01T06:47:54.894Z,72.00
2019-03-01T06:48:54.864Z,71.90
2019-03-01T06:49:54.836Z,71.20
2019-03-01T06:50:55.417Z,73.90
2019-03-01T06:51:54.800Z,74.20
2019-03-01T06:52:54.796Z,76.40
2019-03-01T06:53:54.765Z,76.90
2019-03-01T06:54:54.739Z,76.20
2019-03-01T06:55:56.407Z,77.30
2019-03-01T06:56:54.702Z,76.80
2019-03-01T06:57:54.689Z,78.30
2019-03-01T06:58:54.686Z,77.60
2019-03-01T06:59:54.646Z,75.70
2019-03-01T07:00:54.624Z,77.00
2019-03-01T07:01:54.626Z,75.80
2019-03-01T07:02:54.645Z,78.20
2019-03-01T07:03:56.451Z,77.70
2019-03-01T07:04:54.551Z,76.50
2019-03-01T07:06:02.983Z,78.30
2019-03-01T07:06:54.512Z,76.80
2019-03-01T07:07:54.511Z,77.70
2019-03-01T07:08:54.472Z,79.30
2019-03-01T07:09:54.463Z,79.50
2019-03-01T07:10:55.406Z,80.80
2019-03-01T07:11:54.415Z,81.10
2019-03-01T07:12:54.392Z,82.60
2019-03-01T07:13:55.406Z,83.10
2019-03-01T07:14:54.904Z,82.90
2019-03-01T07:15:54.351Z,84.40
2019-03-01T07:16:54.315Z,84.70
2019-03-01T07:17:54.294Z,83.70
2019-03-01T07:18:54.284Z,86.70
2019-03-01T07:19:54.258Z,84.40
2019-03-01T07:20:54.235Z,85.10
2019-03-01T07:21:54.243Z,85.60
2019-03-01T07:22:54.231Z,84.60
2019-03-01T07:23:54.977Z,85.50
2019-03-01T07:24:54.171Z,86.60
2019-03-01T07:25:54.915Z,86.20
2019-03-01T07:26:54.185Z,86.50
2019-03-01T07:27:54.103Z,87.40
2019-03-01T07:28:54.133Z,86.10
2019-03-01T07:29:54.060Z,85.40
2019-03-01T07:30:54.053Z,87.20
2019-03-01T07:31:54.052Z,86.40
2019-03-01T07:32:54.005Z,87.10
2019-03-01T07:33:53.983Z,88.00
2019-03-01T07:34:54.006Z,87.80
2019-03-01T07:35:53.942Z,90.30
2019-03-01T07:36:53.925Z,88.00
2019-03-01T07:37:53.906Z,90.80
2019-03-01T07:38:53.883Z,91.10
2019-03-01T07:39:53.883Z,89.70
2019-03-01T07:40:53.870Z,93.50
2019-03-01T07:41:53.828Z,92.10
2019-03-01T07:42:53.808Z,92.30
2019-03-01T07:43:53.790Z,90.70
2019-03-01T07:44:53.768Z,90.80
2019-03-01T07:45:53.770Z,92.40
2019-03-01T07:46:54.393Z,89.50
2019-03-01T07:47:53.713Z,92.50
2019-03-01T07:48:53.689Z,89.80
2019-03-01T07:49:53.670Z,88.50
2019-03-01T07:50:55.278Z,86.80
2019-03-01T07:51:53.655Z,84.50
2019-03-01T07:52:53.615Z,83.70
2019-03-01T07:55:39.894Z,83.80
2019-03-01T07:56:40.719Z,82.50
2019-03-01T07:57:39.839Z,80.60
2019-03-01T07:58:39.841Z,80.00
2019-03-01T07:59:39.806Z,80.80
2019-03-01T08:00:39.780Z,78.30
2019-03-01T08:01:39.758Z,79.00
2019-03-01T08:02:40.721Z,74.00
2019-03-01T08:03:39.721Z,75.50
2019-03-01T08:04:39.718Z,74.60
2019-03-01T08:05:40.466Z,74.10
2019-03-01T08:06:39.662Z,74.10
2019-03-01T08:07:39.645Z,73.30
2019-03-01T08:08:40.087Z,73.60
2019-03-01T08:09:41.261Z,74.60
2019-03-01T08:10:39.611Z,72.30
2019-03-01T08:11:39.572Z,73.30
2019-03-01T08:12:42.571Z,73.30
2019-03-01T08:13:39.525Z,74.20
2019-03-01T08:14:39.529Z,75.30
2019-03-01T08:15:40.741Z,73.50
2019-03-01T08:16:39.464Z,76.40
2019-03-01T08:17:39.454Z,77.50
2019-03-01T08:18:40.094Z,75.90
2019-03-01T08:19:39.407Z,79.20
2019-03-01T08:20:39.410Z,77.00
2019-03-01T08:21:42.814Z,77.10
2019-03-01T08:22:47.866Z,77.40
2019-03-01T08:25:23.426Z,75.40
2019-03-01T08:26:21.383Z,77.20
2019-03-01T08:27:21.366Z,79.90
2019-03-01T08:28:22.090Z,78.30
2019-03-01T08:29:21.315Z,78.30
2019-03-01T08:30:21.290Z,77.40
2019-03-01T08:31:22.264Z,76.60
2019-03-01T08:32:21.247Z,77.30
2019-03-01T08:33:22.917Z,75.10
2019-03-01T08:34:21.218Z,73.20
2019-03-01T08:35:21.194Z,73.80
2019-03-01T08:36:21.168Z,75.00
2019-03-01T08:37:21.164Z,75.40
2019-03-01T08:38:21.125Z,72.80
2019-03-01T08:39:21.105Z,71.40
2019-03-01T08:40:21.087Z,72.10
2019-03-01T08:41:21.583Z,71.30
2019-03-01T08:42:21.053Z,71.70
2019-03-01T08:43:21.535Z,73.80
2019-03-01T08:44:23.139Z,73.00
2019-03-01T08:45:21.080Z,72.60
2019-03-01T08:46:21.083Z,73.50
2019-03-01T08:47:24.519Z,72.40
2019-03-01T08:48:21.024Z,75.20
2019-03-01T08:49:20.927Z,73.60
2019-03-01T08:50:20.887Z,74.00
2019-03-01T08:51:22.789Z,72.50
2019-03-01T08:52:20.844Z,68.80
2019-03-01T08:53:20.842Z,69.00
2019-03-01T08:54:22.814Z,68.60
2019-03-01T08:55:20.790Z,72.20
2019-03-01T08:56:26.267Z,70.30
2019-03-01T08:57:22.525Z,66.80
2019-03-01T08:58:20.723Z,68.80
2019-03-01T08:59:20.702Z,69.40
2019-03-01T09:00:23.236Z,67.70
2019-03-01T09:01:20.662Z,69.20
2019-03-01T09:02:20.644Z,69.20
2019-03-01T09:03:22.221Z,68.00
2019-03-01T09:04:21.651Z,68.40
2019-03-01T09:05:20.584Z,67.30
2019-03-01T09:06:20.562Z,66.70
2019-03-01T09:07:20.544Z,67.40
2019-03-01T09:08:20.547Z,68.10
2019-03-01T09:09:20.894Z,68.60
2019-03-01T09:10:20.499Z,67.20
2019-03-01T09:11:20.465Z,68.30
2019-03-01T09:12:20.446Z,68.40
2019-03-01T09:13:20.446Z,67.90
2019-03-01T09:14:22.660Z,66.10
2019-03-01T09:15:20.380Z,66.80
2019-03-01T09:16:20.388Z,67.10
2019-03-01T09:17:20.346Z,68.50
2019-03-01T09:18:20.327Z,68.50
2019-03-01T09:19:22.282Z,68.00
2019-03-01T09:20:20.301Z,66.10
2019-03-01T09:21:20.276Z,66.70
2019-03-01T09:22:20.244Z,69.40
2019-03-01T09:23:25.219Z,67.40
2019-03-01T09:24:20.295Z,66.80
2019-03-01T09:25:20.178Z,67.50
2019-03-01T09:26:20.773Z,67.00
2019-03-01T09:27:20.142Z,64.00
2019-03-01T09:28:20.124Z,63.50
2019-03-01T09:29:20.110Z,62.70
2019-03-01T09:30:20.081Z,62.80
2019-03-01T09:31:20.070Z,63.20
2019-03-01T09:32:20.054Z,61.60
2019-03-01T09:33:21.193Z,62.20
2019-03-01T09:34:19.994Z,63.40
2019-03-01T09:35:19.987Z,65.00
2019-03-01T09:36:21.388Z,62.80
2019-03-01T09:37:19.942Z,62.20
2019-03-01T09:38:19.918Z,62.50
2019-03-01T09:39:19.904Z,62.40
2019-03-01T09:40:19.874Z,62.80
2019-03-01T09:41:19.915Z,63.10
2019-03-01T09:42:19.867Z,60.30
2019-03-01T09:43:19.825Z,58.80
2019-03-01T09:44:19.797Z,58.70
2019-03-01T09:45:19.782Z,58.40
2019-03-01T09:46:20.922Z,59.10
2019-03-01T09:47:19.737Z,56.80
2019-03-01T09:48:19.716Z,57.20
2019-03-01T09:49:21.383Z,56.10
2019-03-01T09:50:19.675Z,56.10
2019-03-01T09:51:20.476Z,56.10
2019-03-01T09:52:20.406Z,55.60
2019-03-01T09:53:19.670Z,53.40
2019-03-01T09:54:19.605Z,51.70
2019-03-01T09:55:19.580Z,50.90
2019-03-01T09:56:19.566Z,50.80
2019-03-01T09:57:19.536Z,51.80
2019-03-01T09:58:19.580Z,51.70
2019-03-01T09:59:19.491Z,49.80
2019-03-01T10:00:19.481Z,49.80
2019-03-01T10:01:19.456Z,50.70
2019-03-01T10:02:19.443Z,49.80
2019-03-01T10:03:19.417Z,50.70
2019-03-01T10:04:19.418Z,51.10
2019-03-01T10:05:19.387Z,50.20
2019-03-01T10:06:19.356Z,48.90
2019-03-01T10:07:19.354Z,50.00
2019-03-01T10:08:19.323Z,49.80
2019-03-01T10:09:19.321Z,51.10
2019-03-01T10:10:19.281Z,50.90
2019-03-01T10:11:19.256Z,50.90
2019-03-01T10:12:19.233Z,50.30
2019-03-01T10:13:19.236Z,50.80
2019-03-01T10:14:20.369Z,50.40
2019-03-01T10:15:19.177Z,51.60
2019-03-01T10:16:19.163Z,51.00
2019-03-01T10:17:19.145Z,52.40
2019-03-01T10:18:19.120Z,52.10
2019-03-01T10:19:19.107Z,54.00
2019-03-01T10:20:19.080Z,54.40
2019-03-01T10:21:19.063Z,54.60
2019-03-01T10:22:19.039Z,55.70
2019-03-01T10:23:19.026Z,55.90
2019-03-01T10:24:18.998Z,55.60
2019-03-01T10:25:18.999Z,55.70
2019-03-01T10:26:18.964Z,57.50
2019-03-01T10:27:18.946Z,58.00
2019-03-01T10:28:18.921Z,60.60
2019-03-01T10:29:18.908Z,62.00
2019-03-01T10:30:18.877Z,60.60
2019-03-01T10:31:18.874Z,63.10
2019-03-01T10:32:18.835Z,62.50
2019-03-01T10:33:18.818Z,61.90
2019-03-01T10:34:18.795Z,64.70
2019-03-01T10:35:18.804Z,64.20
2019-03-01T10:36:18.766Z,62.80
2019-03-01T10:37:18.737Z,63.30
2019-03-01T10:38:18.771Z,64.30
2019-03-01T10:39:18.701Z,63.50
2019-03-01T10:40:18.697Z,63.40
2019-03-01T10:41:18.658Z,63.30
2019-03-01T10:42:18.651Z,61.10
2019-03-01T10:43:18.630Z,61.40
2019-03-01T10:44:18.598Z,62.90
2019-03-01T10:45:18.580Z,62.00
2019-03-01T10:46:18.590Z,61.40
2019-03-01T10:47:18.550Z,61.00
2019-03-01T10:48:18.537Z,58.80
2019-03-01T10:49:18.497Z,59.60
2019-03-01T10:50:18.498Z,59.00
2019-03-01T10:51:18.461Z,58.90
2019-03-01T10:52:18.438Z,58.70
2019-03-01T10:53:18.425Z,60.00
2019-03-01T10:54:18.402Z,60.60
2019-03-01T10:55:18.394Z,60.30
2019-03-01T10:56:18.374Z,60.20
2019-03-01T10:57:18.337Z,60.50
2019-03-01T10:58:18.325Z,59.70
2019-03-01T10:59:18.332Z,58.80
2019-03-01T11:00:18.274Z,59.70
2019-03-01T11:01:18.282Z,59.40
2019-03-01T11:02:18.240Z,59.90
2019-03-01T11:03:18.241Z,59.80
2019-03-01T11:04:18.941Z,57.30
2019-03-01T11:05:18.180Z,58.70
2019-03-01T11:06:18.164Z,58.20
2019-03-01T11:07:18.142Z,59.10
2019-03-01T11:08:18.139Z,62.70
2019-03-01T11:09:18.102Z,61.60
2019-03-01T11:10:18.083Z,62.60
2019-03-01T11:11:18.068Z,62.40
2019-03-01T11:12:18.040Z,58.70
2019-03-01T11:13:18.026Z,60.20
2019-03-01T11:14:18.019Z,59.70
2019-03-01T11:15:17.987Z,59.60
2019-03-01T11:16:17.978Z,59.70
2019-03-01T11:17:17.958Z,58.60
2019-03-01T11:18:17.924Z,60.70
2019-03-01T11:19:17.928Z,58.20
2019-03-01T11:20:17.887Z,58.40
2019-03-01T11:21:17.861Z,58.00
2019-03-01T11:22:17.866Z,57.70
2019-03-01T11:23:17.831Z,56.30
2019-03-01T11:24:17.820Z,57.90
2019-03-01T11:25:17.803Z,57.80
2019-03-01T11:26:17.767Z,57.60
2019-03-01T11:27:17.749Z,57.10
2019-03-01T11:28:17.750Z,58.00
2019-03-01T11:29:19.446Z,56.00
2019-03-01T11:30:17.691Z,56.10
2019-03-01T11:31:17.685Z,54.90
2019-03-01T11:32:17.646Z,55.90
2019-03-01T11:33:17.630Z,56.50
2019-03-01T11:34:17.606Z,53.30
2019-03-01T11:35:17.601Z,53.10
2019-03-01T11:36:17.583Z,52.20
2019-03-01T11:37:17.549Z,51.40
2019-03-01T11:38:17.533Z,51.80
2019-03-01T11:39:17.512Z,51.20
2019-03-01T11:40:17.490Z,51.80
2019-03-01T11:41:17.511Z,52.30
2019-03-01T11:42:17.466Z,50.60
2019-03-01T11:43:17.427Z,50.30
2019-03-01T11:44:17.409Z,48.50
2019-03-01T11:45:17.992Z,49.30
2019-03-01T11:46:17.380Z,48.40
2019-03-01T11:47:17.375Z,48.30
2019-03-01T11:48:17.334Z,47.80
2019-03-01T11:49:17.315Z,49.20
2019-03-01T11:50:17.302Z,48.70
2019-03-01T11:51:17.273Z,48.20
2019-03-01T11:52:17.251Z,48.50
2019-03-01T11:53:17.994Z,45.90
2019-03-01T11:54:17.216Z,45.90
2019-03-01T11:55:17.205Z,47.30
2019-03-01T11:56:17.183Z,46.70
2019-03-01T11:57:17.153Z,46.00
2019-03-01T11:58:17.137Z,44.30
2019-03-01T11:59:17.127Z,44.70
2019-03-01T12:00:17.093Z,42.40
2019-03-01T12:01:17.614Z,43.20
2019-03-01T12:02:17.063Z,43.70
2019-03-01T12:03:17.034Z,44.90
2019-03-01T12:04:17.014Z,45.30
2019-03-01T12:05:17.018Z,46.50
2019-03-01T12:06:16.970Z,46.10
2019-03-01T12:07:16.965Z,45.40
2019-03-01T12:08:16.930Z,44.70
2019-03-01T12:09:16.918Z,45.10
2019-03-01T12:10:16.900Z,44.60
2019-03-01T12:11:16.895Z,45.70
2019-03-01T12:12:16.873Z,44.30
2019-03-01T12:13:16.834Z,44.60
2019-03-01T12:14:16.826Z,42.90
2019-03-01T12:15:16.790Z,43.20
2019-03-01T12:16:16.789Z,41.80
2019-03-01T12:17:16.794Z,42.20
2019-03-01T12:18:16.728Z,42.90
2019-03-01T12:19:16.712Z,44.20
2019-03-01T12:20:16.698Z,41.70
2019-03-01T12:21:16.700Z,41.80
2019-03-01T12:22:17.425Z,42.30
2019-03-01T12:23:16.635Z,41.60
2019-03-01T12:24:16.613Z,41.30
2019-03-01T12:25:16.606Z,42.20
2019-03-01T12:26:16.580Z,42.50
2019-03-01T12:27:16.593Z,41.80
2019-03-01T12:28:16.570Z,41.80
2019-03-01T12:29:16.521Z,42.70
2019-03-01T12:30:16.494Z,43.20
2019-03-01T12:31:16.485Z,41.00
2019-03-01T12:32:16.482Z,42.30
2019-03-01T12:33:16.452Z,42.80
2019-03-01T12:34:16.424Z,41.80
2019-03-01T12:35:16.406Z,40.80
2019-03-01T12:36:16.372Z,40.60
2019-03-01T12:37:18.957Z,40.90
2019-03-01T12:38:16.332Z,37.40
2019-03-01T12:39:16.313Z,33.30
2019-03-01T12:40:16.323Z,31.10
2019-03-01T12:41:16.277Z,28.80
2019-03-01T12:42:16.255Z,27.70
2019-03-01T12:43:16.234Z,25.50
2019-03-01T12:44:16.216Z,24.00
2019-03-01T12:45:16.189Z,24.30
2019-03-01T12:46:16.198Z,24.10
2019-03-01T12:47:16.152Z,23.30
2019-03-01T12:48:16.133Z,21.70
2019-03-01T12:49:16.110Z,23.00
2019-03-01T12:50:16.117Z,21.50
2019-03-01T12:51:16.069Z,21.90
2019-03-01T12:52:16.049Z,21.30
2019-03-01T12:53:16.035Z,21.80
2019-03-01T12:54:16.016Z,20.60
2019-03-01T12:55:16.006Z,20.60
2019-03-01T12:56:15.973Z,20.00
2019-03-01T12:57:15.951Z,20.00
2019-03-01T12:58:19.497Z,20.30